Time;durP1;ratioP1;P1;durP2;ratioP2;P2;SDS_P1;SDS_P2;PMS_P1;PMS_P2;Temp;Humidity;BMP_temperature;BMP_pressure;BME280_temperature;BME280_humidity;BME280_pressure;Samples;Min_cycle;Max_cycle;Signal;HPM_P1;HPM_P2
2022/08/07 00:01:15;;;;;;;;;;;;;;;20.94;64.66;99392.66;5135385;27;19927;-80
2022/08/07 00:04:03;;;;;;;;;;;;;;;20.85;64.86;99381.59;5134938;27;19927;-79
2022/08/07 00:06:31;;;;;;;;;;;;;;;20.83;64.99;99385.75;5116868;27;20018;-80
2022/08/07 00:09:00;;;;;;;;;;;;;;;20.77;65.16;99385.03;5134709;27;20377;-81
2022/08/07 00:11:47;;;;;;;;;;;;;;;20.77;65.14;99388.59;5134700;27;19935;-81
2022/08/07 00:14:22;;;;;;;;;;;;;;;20.77;65.30;99391.31;5135212;27;20022;-79
2022/08/07 00:16:57;;;;;;;;;;;;;;;20.72;65.55;99388.69;5134454;27;19927;-80
2022/08/07 00:19:24;;;;;;;;;;;;;;;20.70;65.34;99390.91;5134659;27;20022;-80
2022/08/07 00:22:14;;;;;;;;;;;;;;;20.67;65.52;99398.94;5134784;27;19934;-80
2022/08/07 00:25:07;;;;;;;;;;;;;;;20.62;65.63;99391.59;5134548;27;20022;-81
2022/08/07 00:27:41;;;;;;;;;;;;;;;20.62;66.07;99390.81;5133813;27;20361;-80
2022/08/07 00:30:22;;;;;;;;;;;;;;;20.61;65.91;99389.16;5118417;27;20304;-79
2022/08/07 00:33:11;;;;;;;;;;;;;;;20.55;65.92;99382.97;5115903;27;20399;-80
2022/08/07 00:35:39;;;;;;;;;;;;;;;20.52;66.42;99384.34;5116364;27;20231;-80
2022/08/07 00:38:06;;;;;;;;;;;;;;;20.51;66.56;99382.72;5115450;27;20397;-80
2022/08/07 00:40:33;;;;;;;;;;;;;;;20.50;66.87;99381.09;5134494;27;20456;-80
2022/08/07 00:43:09;;;;;;;;;;;;;;;20.50;66.63;99377.53;5140443;27;19962;-79
2022/08/07 00:45:57;;;;;;;;;;;;;;;20.39;66.84;99376.91;5135872;27;19971;-81
2022/08/07 00:48:23;;;;;;;;;;;;;;;20.31;66.70;99375.66;5132552;27;19957;-81
2022/08/07 00:51:01;;;;;;;;;;;;;;;20.26;67.16;99378.50;5133506;27;20201;-80
2022/08/07 00:53:28;;;;;;;;;;;;;;;20.24;67.16;99371.69;5134448;27;19971;-80
2022/08/07 00:56:15;;;;;;;;;;;;;;;20.24;67.19;99375.22;5134045;27;20457;-80
2022/08/07 00:59:05;;;;;;;;;;;;;;;20.28;66.86;99372.69;5115214;27;20060;-80
2022/08/07 01:01:33;;;;;;;;;;;;;;;20.29;66.65;99369.66;5134108;27;20037;-80
2022/08/07 01:04:10;;;;;;;;;;;;;;;20.28;66.45;99375.44;5133951;27;19950;-79
2022/08/07 01:06:50;;;;;;;;;;;;;;;20.27;66.44;99374.63;5133616;27;19972;-79
2022/08/07 01:09:19;;;;;;;;;;;;;;;20.23;66.79;99372.78;5133493;27;19928;-81
2022/08/07 01:12:06;;;;;;;;;;;;;;;20.19;67.26;99372.56;5118413;27;19927;-80
2022/08/07 01:14:56;;;;;;;;;;;;;;;20.16;67.49;99384.13;5133968;27;20042;-80
2022/08/07 01:17:30;;;;;;;;;;;;;;;20.11;67.69;99382.28;5099293;27;19927;-81
2022/08/07 01:20:00;;;;;;;;;;;;;;;20.09;67.66;99383.69;5098287;27;19934;-79
2022/08/07 01:22:30;;;;;;;;;;;;;;;20.04;67.87;99375.56;5115202;27;19973;-80
2022/08/07 01:24:57;;;;;;;;;;;;;;;20.02;68.16;99377.78;5098281;27;20013;-81
2022/08/07 01:27:46;;;;;;;;;;;;;;;19.99;68.04;99372.91;5133398;27;20026;-80
2022/08/07 01:30:17;;;;;;;;;;;;;;;20.03;67.77;99374.75;5113033;27;19931;-79
2022/08/07 01:32:53;;;;;;;;;;;;;;;19.99;67.83;99378.38;5110066;27;20033;-80
2022/08/07 01:35:21;;;;;;;;;;;;;;;19.93;68.02;99377.66;5114091;27;19931;-79
2022/08/07 01:37:51;;;;;;;;;;;;;;;19.89;68.31;99376.59;5114386;27;19939;-80
2022/08/07 01:40:20;;;;;;;;;;;;;;;19.83;68.50;99380.53;5114920;27;19933;-80
2022/08/07 01:42:56;;;;;;;;;;;;;;;19.82;68.48;99381.63;5099041;27;20351;-81
2022/08/07 01:45:28;;;;;;;;;;;;;;;19.78;68.71;99383.34;5114841;27;20379;-81
2022/08/07 01:48:12;;;;;;;;;;;;;;;19.74;68.59;99382.31;5114910;27;19968;-79
2022/08/07 01:51:01;;;;;;;;;;;;;;;19.69;69.00;99374.97;5133050;27;19972;-80
2022/08/07 01:53:52;;;;;;;;;;;;;;;19.68;68.83;99378.84;5117879;27;19937;-80
2022/08/07 01:56:38;;;;;;;;;;;;;;;19.72;68.43;99366.16;5118276;27;19954;-81
2022/08/07 01:59:13;;;;;;;;;;;;;;;19.76;68.08;99378.16;5114400;27;19934;-80
2022/08/07 02:01:49;;;;;;;;;;;;;;;19.77;67.88;99377.03;5098029;27;20058;-80
2022/08/07 02:04:41;;;;;;;;;;;;;;;19.73;67.86;99376.03;5100023;27;19927;-81
2022/08/07 02:07:25;;;;;;;;;;;;;;;19.73;67.76;99373.28;5099837;27;19928;-80
2022/08/07 02:10:12;;;;;;;;;;;;;;;19.74;67.62;99366.69;5132789;27;20405;-82
2022/08/07 02:12:42;;;;;;;;;;;;;;;19.78;67.49;99361.44;5095679;28;19927;-80
2022/08/07 02:15:21;;;;;;;;;;;;;;;19.82;67.12;99363.28;5116476;27;19931;-81
2022/08/07 02:17:50;;;;;;;;;;;;;;;19.84;66.90;99366.53;5132367;27;19927;-81
2022/08/07 02:20:18;;;;;;;;;;;;;;;19.87;66.74;99365.13;5097685;28;19935;-80
2022/08/07 02:22:56;;;;;;;;;;;;;;;19.87;66.48;99365.94;5113934;27;19927;-80
2022/08/07 02:25:29;;;;;;;;;;;;;;;19.87;66.65;99360.47;5098621;28;19931;-82
2022/08/07 02:28:19;;;;;;;;;;;;;;;19.87;66.35;99362.38;5087219;28;20309;-81
2022/08/07 02:30:55;;;;;;;;;;;;;;;19.87;66.42;99356.91;5098355;28;20177;-80
2022/08/07 02:33:22;;;;;;;;;;;;;;;19.89;66.23;99360.19;5097408;28;19927;-81
2022/08/07 02:36:01;;;;;;;;;;;;;;;19.93;65.95;99361.22;5098853;28;19933;-80
2022/08/07 02:38:48;;;;;;;;;;;;;;;19.96;65.88;99362.56;5100326;28;19931;-82
2022/08/07 02:41:24;;;;;;;;;;;;;;;20.05;65.29;99356.09;5113920;28;19972;-81
2022/08/07 02:44:00;;;;;;;;;;;;;;;20.10;64.93;99368.88;5081323;28;19931;-80
2022/08/07 02:46:26;;;;;;;;;;;;;;;20.15;64.55;99366.06;5125381;27;20030;-80
2022/08/07 02:48:56;;;;;;;;;;;;;;;20.20;64.42;99363.22;5097228;28;19972;-81
2022/08/07 02:51:23;;;;;;;;;;;;;;;20.22;63.95;99363.75;5134880;27;19931;-80
2022/08/07 02:54:10;;;;;;;;;;;;;;;20.26;63.67;99367.53;5121321;27;19927;-81
2022/08/07 02:56:39;;;;;;;;;;;;;;;20.28;63.44;99367.22;5101652;27;19927;-82
2022/08/07 02:59:08;;;;;;;;;;;;;;;20.29;63.54;99366.91;5100981;27;19927;-81
2022/08/07 03:01:37;;;;;;;;;;;;;;;20.36;63.07;99366.53;5101470;27;19934;-81
2022/08/07 03:04:10;;;;;;;;;;;;;;;20.40;63.09;99361.25;5117599;27;20355;-81
2022/08/07 03:06:43;;;;;;;;;;;;;;;20.39;63.39;99373.34;5117775;27;19963;-81
2022/08/07 03:09:14;;;;;;;;;;;;;;;20.36;63.29;99372.03;5084633;27;19957;-81
2022/08/07 03:12:02;;;;;;;;;;;;;;;20.40;63.01;99377.72;5117450;27;19927;-79
2022/08/07 03:14:33;;;;;;;;;;;;;;;20.43;63.01;99371.63;5118337;27;19966;-81
2022/08/07 03:17:03;;;;;;;;;;;;;;;20.44;63.02;99373.25;5100579;27;19927;-81
2022/08/07 03:19:35;;;;;;;;;;;;;;;20.46;62.89;99371.00;5117706;27;19977;-81
2022/08/07 03:22:08;;;;;;;;;;;;;;;20.50;62.92;99377.53;5100388;27;19935;-81
2022/08/07 03:24:47;;;;;;;;;;;;;;;20.57;62.57;99367.03;5117759;27;19996;-80
2022/08/07 03:27:14;;;;;;;;;;;;;;;20.64;62.33;99372.94;5100768;27;19927;-81
2022/08/07 03:30:03;;;;;;;;;;;;;;;20.67;61.89;99375.06;5100433;27;19976;-81
2022/08/07 03:32:36;;;;;;;;;;;;;;;20.65;62.51;99371.81;5135878;27;20480;-80
2022/08/07 03:35:06;;;;;;;;;;;;;;;20.72;62.37;99372.22;5117155;27;19971;-80
2022/08/07 03:37:47;;;;;;;;;;;;;;;20.73;62.35;99376.59;5102511;27;20007;-80
2022/08/07 03:40:22;;;;;;;;;;;;;;;20.73;62.22;99371.09;5135957;27;19950;-81
2022/08/07 03:42:59;;;;;;;;;;;;;;;20.73;62.22;99373.03;5101283;27;19980;-79
2022/08/07 03:45:32;;;;;;;;;;;;;;;20.78;61.96;99368.25;5101031;27;19927;-80
2022/08/07 03:48:09;;;;;;;;;;;;;;;20.81;61.90;99371.50;5116634;27;19938;-80
2022/08/07 03:50:37;;;;;;;;;;;;;;;20.81;61.86;99366.84;5100184;27;19928;-81
2022/08/07 03:53:09;;;;;;;;;;;;;;;20.87;61.64;99373.06;5100388;27;20091;-81
2022/08/07 03:55:37;;;;;;;;;;;;;;;20.95;61.41;99377.84;5083145;27;20407;-80
2022/08/07 03:58:24;;;;;;;;;;;;;;;20.99;61.19;99362.41;5135050;27;19927;-80
2022/08/07 04:01:11;;;;;;;;;;;;;;;21.02;61.15;99370.03;5102414;27;19927;-81
2022/08/07 04:03:42;;;;;;;;;;;;;;;21.07;61.18;99375.41;5116623;27;20055;-81
2022/08/07 04:06:20;;;;;;;;;;;;;;;21.15;61.50;99366.44;5116725;27;19927;-80
2022/08/07 04:09:08;;;;;;;;;;;;;;;21.25;60.81;99361.88;5116383;27;20394;-81
2022/08/07 04:11:44;;;;;;;;;;;;;;;21.24;60.73;99362.97;5118337;27;19927;-79
2022/08/07 04:14:36;;;;;;;;;;;;;;;21.26;60.66;99369.78;5116522;27;19933;-81
2022/08/07 04:17:14;;;;;;;;;;;;;;;21.40;60.31;99373.38;5100999;27;19927;-81
2022/08/07 04:19:49;;;;;;;;;;;;;;;21.50;60.30;99366.84;5116414;27;19980;-80
2022/08/07 04:22:23;;;;;;;;;;;;;;;21.58;60.10;99371.59;5116541;27;19928;-80
2022/08/07 04:24:56;;;;;;;;;;;;;;;21.63;60.05;99379.72;5099847;27;19931;-80
2022/08/07 04:27:25;;;;;;;;;;;;;;;21.68;59.85;99380.75;5116154;27;19957;-80
2022/08/07 04:29:56;;;;;;;;;;;;;;;21.73;59.77;99372.41;5115808;27;20022;-80
2022/08/07 04:32:43;;;;;;;;;;;;;;;21.74;59.57;99368.50;5101969;27;19931;-80
2022/08/07 04:35:15;;;;;;;;;;;;;;;21.70;59.94;99365.59;5099794;27;19928;-82
2022/08/07 04:37:44;;;;;;;;;;;;;;;21.76;59.44;99374.53;5116038;27;19935;-81
2022/08/07 04:40:32;;;;;;;;;;;;;;;21.88;59.34;99365.72;5102142;27;19927;-81
2022/08/07 04:43:00;;;;;;;;;;;;;;;21.94;59.21;99365.28;5133516;27;19927;-82
2022/08/07 04:45:45;;;;;;;;;;;;;;;21.94;58.94;99362.53;5084148;27;19927;-82
2022/08/07 04:48:56;;;;;;;;;;;;;;;21.99;58.93;99367.91;5101435;27;19927;-82
2022/08/07 04:51:35;;;;;;;;;;;;;;;22.23;58.80;99377.81;5115823;27;19931;-81
2022/08/07 04:54:05;;;;;;;;;;;;;;;22.40;58.25;99371.63;5135996;27;20013;-82
2022/08/07 04:56:45;;;;;;;;;;;;;;;22.44;57.67;99387.19;5116996;27;19927;-83
2022/08/07 04:59:36;;;;;;;;;;;;;;;22.37;58.10;99383.25;5100176;27;20500;-79
2022/08/07 05:02:26;;;;;;;;;;;;;;;22.35;58.54;99386.31;5103574;27;19927;-81
2022/08/07 05:05:08;;;;;;;;;;;;;;;22.42;58.22;99386.69;5058082;28;19986;-81
2022/08/07 05:08:00;;;;;;;;;;;;;;;22.38;58.59;99382.94;5076153;28;20444;-82
2022/08/07 05:10:30;;;;;;;;;;;;;;;22.37;58.86;99389.56;5069355;28;19932;-82
2022/08/07 05:13:13;;;;;;;;;;;;;;;22.46;58.85;99382.19;5076603;28;19928;-81
2022/08/07 05:16:01;;;;;;;;;;;;;;;22.54;58.69;99377.88;5066276;28;19928;-82
2022/08/07 05:18:34;;;;;;;;;;;;;;;22.79;58.04;99383.81;5064880;28;19962;-82
2022/08/07 05:21:04;;;;;;;;;;;;;;;22.89;58.01;99389.88;5063231;28;19928;-83
2022/08/07 05:23:51;;;;;;;;;;;;;;;23.07;57.40;99379.75;5053340;28;19936;-80
2022/08/07 05:26:19;;;;;;;;;;;;;;;23.21;57.20;99376.88;5085082;28;19936;-82
2022/08/07 05:29:00;;;;;;;;;;;;;;;23.43;56.56;99380.69;5049908;28;19956;-81
2022/08/07 05:31:34;;;;;;;;;;;;;;;23.52;56.42;99378.72;5074131;28;19928;-81
2022/08/07 05:34:08;;;;;;;;;;;;;;;23.57;56.09;99378.56;5059769;28;19967;-80
2022/08/07 05:36:50;;;;;;;;;;;;;;;23.86;55.63;99375.25;5065153;28;20023;-80
2022/08/07 05:39:36;;;;;;;;;;;;;;;24.33;54.85;99375.38;5066250;28;19938;-81
2022/08/07 05:42:23;;;;;;;;;;;;;;;24.63;53.79;99373.53;5112632;27;19987;-80
2022/08/07 05:45:04;;;;;;;;;;;;;;;24.79;53.41;99378.53;5089168;27;19989;-81
2022/08/07 05:47:53;;;;;;;;;;;;;;;24.77;53.02;99386.34;5104550;27;20397;-80
2022/08/07 05:50:37;;;;;;;;;;;;;;;25.00;52.43;99382.19;5117703;27;19941;-81
2022/08/07 05:53:10;;;;;;;;;;;;;;;25.08;52.45;99384.09;5101750;27;19931;-80
2022/08/07 05:55:57;;;;;;;;;;;;;;;25.14;52.54;99381.13;4768488;27;10000656;-81
2022/08/07 05:58:31;;;;;;;;;;;;;;;25.07;52.43;99373.38;5100173;27;19927;-81
2022/08/07 06:01:06;;;;;;;;;;;;;;;25.00;52.98;99373.09;5104949;27;19935;-82
2022/08/07 06:03:38;;;;;;;;;;;;;;;25.07;52.67;99393.53;5108817;27;19972;-83
2022/08/07 06:06:25;;;;;;;;;;;;;;;25.10;52.39;99405.84;5120724;27;19931;-84
2022/08/07 06:09:01;;;;;;;;;;;;;;;25.11;52.83;99395.59;5134706;27;19927;-83
2022/08/07 06:11:33;;;;;;;;;;;;;;;25.20;52.55;99377.09;5118072;27;20369;-84
2022/08/07 06:14:01;;;;;;;;;;;;;;;25.06;52.72;99407.63;5100302;27;19927;-84
2022/08/07 06:16:48;;;;;;;;;;;;;;;24.85;53.37;99391.81;5109333;28;19928;-84
2022/08/07 06:19:28;;;;;;;;;;;;;;;24.86;53.83;99392.63;5118559;27;20033;-82
2022/08/07 06:22:17;;;;;;;;;;;;;;;24.88;53.73;99393.09;5126705;27;20306;-83
2022/08/07 06:25:08;;;;;;;;;;;;;;;24.93;53.63;99397.63;5101803;28;19934;-83
2022/08/07 06:27:40;;;;;;;;;;;;;;;24.88;53.61;99395.88;5096256;27;19969;-83
2022/08/07 06:30:26;;;;;;;;;;;;;;;25.06;52.65;99402.94;5122746;27;19931;-81
2022/08/07 06:33:10;;;;;;;;;;;;;;;25.05;52.87;99400.50;5111740;27;19927;-81
2022/08/07 06:35:46;;;;;;;;;;;;;;;25.14;52.83;99405.97;5137952;27;19931;-82
2022/08/07 06:38:40;;;;;;;;;;;;;;;25.23;52.69;99415.09;5114356;28;19934;-80
2022/08/07 06:41:36;;;;;;;;;;;;;;;25.25;52.54;99399.78;5101968;27;19927;-82
2022/08/07 06:44:38;;;;;;;;;;;;;;;25.06;52.63;99405.69;5126838;27;19927;-82
2022/08/07 06:47:06;;;;;;;;;;;;;;;24.88;52.97;99412.41;5143369;27;19927;-84
2022/08/07 06:49:42;;;;;;;;;;;;;;;24.95;52.95;99409.97;5121727;27;19970;-82
2022/08/07 06:52:19;;;;;;;;;;;;;;;25.12;52.75;99411.03;5120278;28;19938;-85
2022/08/07 06:55:09;;;;;;;;;;;;;;;25.23;52.98;99406.78;5103489;27;19928;-84
2022/08/07 06:57:58;;;;;;;;;;;;;;;25.03;53.17;99403.59;5122920;27;19927;-83
2022/08/07 07:00:30;;;;;;;;;;;;;;;25.23;52.90;99396.56;5143614;27;20026;-84
2022/08/07 07:03:00;;;;;;;;;;;;;;;25.61;52.33;99397.66;5109020;27;19931;-84
2022/08/07 07:05:37;;;;;;;;;;;;;;;25.71;51.99;99400.81;5136272;27;19927;-84
2022/08/07 07:08:25;;;;;;;;;;;;;;;25.66;52.05;99397.44;5143144;27;19927;-83
2022/08/07 07:11:06;;;;;;;;;;;;;;;26.17;51.29;99400.97;5112505;28;19934;-84
2022/08/07 07:13:53;;;;;;;;;;;;;;;26.40;49.72;99397.84;5107189;27;20404;-83
2022/08/07 07:16:29;;;;;;;;;;;;;;;26.65;49.63;99398.75;5134409;27;20455;-87
2022/08/07 07:18:58;;;;;;;;;;;;;;;26.80;48.83;99398.09;5113743;28;19980;-85
2022/08/07 07:21:31;;;;;;;;;;;;;;;26.53;49.62;99397.56;5136026;27;19939;-86
2022/08/07 07:24:19;;;;;;;;;;;;;;;26.55;49.77;99400.78;5116676;28;19927;-85
2022/08/07 07:26:47;;;;;;;;;;;;;;;26.83;49.82;99388.28;5080366;28;19934;-85
2022/08/07 07:29:23;;;;;;;;;;;;;;;26.73;50.27;99397.84;5131954;28;19927;-85
2022/08/07 07:32:10;;;;;;;;;;;;;;;26.36;50.37;99395.75;5131733;28;20039;-83
2022/08/07 07:34:37;;;;;;;;;;;;;;;26.13;50.80;99397.25;5113668;28;20033;-85
2022/08/07 07:37:18;;;;;;;;;;;;;;;26.31;50.31;99384.09;5115305;27;19927;-85
2022/08/07 07:40:06;;;;;;;;;;;;;;;26.82;50.32;99379.19;5120264;27;19951;-85
2022/08/07 07:42:41;;;;;;;;;;;;;;;27.26;48.92;99389.72;5118561;27;19928;-85
2022/08/07 07:45:13;;;;;;;;;;;;;;;27.27;48.09;99380.25;5117648;27;20305;-85
2022/08/07 07:47:44;;;;;;;;;;;;;;;27.23;48.32;99392.03;5117706;27;20019;-84
2022/08/07 07:50:21;;;;;;;;;;;;;;;27.49;47.76;99390.06;5103510;27;19927;-84
2022/08/07 07:53:04;;;;;;;;;;;;;;;27.81;47.31;99374.41;5119611;27;19927;-85
2022/08/07 07:55:46;;;;;;;;;;;;;;;28.42;46.83;99376.16;5135653;27;19931;-85
2022/08/07 07:58:30;;;;;;;;;;;;;;;28.96;45.57;99372.81;5133577;27;19935;-84
2022/08/07 08:01:08;;;;;;;;;;;;;;;29.23;43.84;99373.13;5100888;27;19928;-84
2022/08/07 08:03:57;;;;;;;;;;;;;;;29.29;42.44;99371.66;5119684;27;19927;-84
2022/08/07 08:06:38;;;;;;;;;;;;;;;29.39;41.91;99376.66;5135444;27;19928;-85
2022/08/07 08:09:05;;;;;;;;;;;;;;;29.14;41.98;99388.00;5117641;27;19934;-85
2022/08/07 08:11:33;;;;;;;;;;;;;;;29.08;42.64;99380.28;5135044;27;19928;-85
2022/08/07 08:14:21;;;;;;;;;;;;;;;28.92;43.14;99389.41;5135132;27;20355;-84
2022/08/07 08:16:55;;;;;;;;;;;;;;;29.24;42.94;99388.59;5116288;27;20036;-84
2022/08/07 08:19:45;;;;;;;;;;;;;;;29.49;42.81;99391.97;5120224;27;19927;-83
2022/08/07 08:28:16;;;;;;;;;;;;;;;31.02;38.88;99374.81;5121501;27;20019;-84
2022/08/07 08:31:03;;;;;;;;;;;;;;;30.99;38.81;99383.94;5119213;27;19927;-84
2022/08/07 08:33:32;;;;;;;;;;;;;;;31.38;38.23;99375.41;5116902;27;20305;-84
2022/08/07 08:36:00;;;;;;;;;;;;;;;31.30;38.13;99362.50;5134019;27;19931;-84
2022/08/07 08:38:32;;;;;;;;;;;;;;;31.76;37.20;99365.16;5116370;27;19968;-83
2022/08/07 08:41:32;;;;;;;;;;;;;;;32.23;36.63;99360.16;5117397;27;19931;-84
2022/08/07 08:44:23;;;;;;;;;;;;;;;32.33;35.69;99356.69;5134088;27;20340;-84
2022/08/07 08:47:00;;;;;;;;;;;;;;;32.65;35.57;99364.63;5116583;27;19928;-85
2022/08/07 08:49:31;;;;;;;;;;;;;;;32.60;34.43;99360.19;5114695;27;19928;-84
2022/08/07 08:52:25;;;;;;;;;;;;;;;32.59;31.89;99375.38;5133849;27;19939;-85
2022/08/07 08:55:27;;;;;;;;;;;;;;;31.60;33.63;99354.19;5101584;27;20390;-84
2022/08/07 08:58:34;;;;;;;;;;;;;;;30.79;34.87;99354.47;5113909;27;19931;-83
2022/08/07 09:01:04;;;;;;;;;;;;;;;30.22;36.42;99351.44;5133972;27;19927;-84
2022/08/07 09:03:56;;;;;;;;;;;;;;;29.95;37.08;99350.50;5117856;27;20021;-83
2022/08/07 09:06:38;;;;;;;;;;;;;;;29.78;37.88;99354.53;5133847;27;19996;-83
2022/08/07 09:09:24;;;;;;;;;;;;;;;29.88;37.77;99350.34;5116147;27;19928;-84
2022/08/07 09:12:11;;;;;;;;;;;;;;;30.61;37.37;99343.84;5070055;28;19934;-84
2022/08/07 09:15:19;;;;;;;;;;;;;;;31.93;35.33;99349.84;5070044;28;19971;-84
2022/08/07 09:18:09;;;;;;;;;;;;;;;32.23;34.86;99351.78;5039675;28;20437;-84
2022/08/07 09:20:49;;;;;;;;;;;;;;;31.49;35.40;99342.88;5053430;28;19974;-84
2022/08/07 09:23:29;;;;;;;;;;;;;;;30.91;36.93;99342.38;5039776;28;19928;-84
2022/08/07 09:26:23;;;;;;;;;;;;;;;30.93;36.70;99340.00;5053046;28;19928;-84
2022/08/07 09:28:54;;;;;;;;;;;;;;;31.25;36.80;99332.97;5053121;28;19932;-84
2022/08/07 09:31:42;;;;;;;;;;;;;;;31.73;35.83;99332.44;5055910;28;19932;-84
2022/08/07 09:34:33;;;;;;;;;;;;;;;31.62;35.89;99335.09;5053816;28;19951;-85
2022/08/07 09:37:10;;;;;;;;;;;;;;;31.24;36.23;99322.16;5069385;28;20034;-82
2022/08/07 09:39:46;;;;;;;;;;;;;;;30.96;37.11;99328.13;5053851;28;19974;-83
2022/08/07 09:42:21;;;;;;;;;;;;;;;30.99;37.37;99324.56;5086461;27;19927;-84
2022/08/07 09:45:06;;;;;;;;;;;;;;;31.08;36.93;99320.34;5133000;27;19960;-85
2022/08/07 09:47:54;;;;;;;;;;;;;;;31.25;36.36;99312.66;5114455;27;19933;-84
2022/08/07 09:50:49;;;;;;;;;;;;;;;31.23;36.22;99321.38;5133020;27;19970;-84
2022/08/07 09:53:19;;;;;;;;;;;;;;;31.43;36.03;99324.09;5132621;27;20394;-85
2022/08/07 09:55:56;;;;;;;;;;;;;;;31.30;36.29;99312.31;5133005;27;20400;-85
2022/08/07 09:58:49;;;;;;;;;;;;;;;31.28;36.58;99306.31;5133126;27;19942;-85
2022/08/07 10:01:29;;;;;;;;;;;;;;;31.09;36.85;99304.44;5114110;27;19936;-84
2022/08/07 10:04:25;;;;;;;;;;;;;;;30.64;37.05;99311.66;5132724;27;19934;-84
2022/08/07 10:07:10;;;;;;;;;;;;;;;31.56;35.69;99300.34;5132689;27;19980;-85
2022/08/07 10:09:55;;;;;;;;;;;;;;;32.19;34.55;99298.72;5116549;27;19934;-84
2022/08/07 10:12:41;;;;;;;;;;;;;;;32.49;33.98;99289.47;5132399;27;19939;-84
2022/08/07 10:15:29;;;;;;;;;;;;;;;33.52;32.76;99288.59;5132454;27;19934;-85
2022/08/07 10:18:07;;;;;;;;;;;;;;;34.43;31.37;99292.09;5132298;27;20373;-84
2022/08/07 10:20:44;;;;;;;;;;;;;;;34.69;30.27;99298.53;5114233;27;20430;-84
2022/08/07 10:23:32;;;;;;;;;;;;;;;35.04;29.94;99288.50;5082824;27;19968;-83
2022/08/07 10:26:26;;;;;;;;;;;;;;;34.14;30.18;99282.88;5132182;27;19942;-84
2022/08/07 10:28:53;;;;;;;;;;;;;;;32.36;32.95;99277.72;5113792;28;20021;-85
2022/08/07 10:31:39;;;;;;;;;;;;;;;31.49;34.31;99289.09;5113776;28;19932;-85
2022/08/07 10:34:22;;;;;;;;;;;;;;;30.60;35.77;99292.09;5131931;28;20390;-84
2022/08/07 10:37:22;;;;;;;;;;;;;;;30.96;35.12;99283.53;5116847;28;19980;-84
2022/08/07 10:40:28;;;;;;;;;;;;;;;31.12;35.12;99281.41;5113273;28;19962;-84
2022/08/07 10:42:57;;;;;;;;;;;;;;;32.57;33.21;99269.59;5131804;28;20397;-83
2022/08/07 10:45:37;;;;;;;;;;;;;;;33.72;31.06;99273.13;5097541;28;19958;-85
2022/08/07 10:48:40;;;;;;;;;;;;;;;33.35;31.74;99264.94;5116459;28;19927;-85
2022/08/07 10:51:11;;;;;;;;;;;;;;;34.66;30.03;99266.53;5132165;28;20022;-85
2022/08/07 10:54:05;;;;;;;;;;;;;;;34.14;29.55;99270.88;5120888;27;19946;-86
2022/08/07 10:56:42;;;;;;;;;;;;;;;34.10;29.04;99263.25;5120344;27;19970;-85
2022/08/07 10:59:27;;;;;;;;;;;;;;;35.28;27.39;99259.66;5141960;27;20434;-87
2022/08/07 11:02:21;;;;;;;;;;;;;;;34.67;28.10;99264.53;5125143;27;20082;-89
2022/08/07 11:05:18;;;;;;;;;;;;;;;33.67;29.06;99265.09;5153217;27;20342;-87
2022/08/07 11:07:53;;;;;;;;;;;;;;;34.94;27.67;99259.28;5153020;27;20317;-84
2022/08/07 11:10:27;;;;;;;;;;;;;;;35.21;27.20;99264.47;5115151;27;19933;-86
2022/08/07 11:13:03;;;;;;;;;;;;;;;36.43;26.20;99251.44;5119292;27;19927;-86
2022/08/07 11:15:31;;;;;;;;;;;;;;;36.83;25.38;99249.09;5143267;27;20022;-85
2022/08/07 11:18:00;;;;;;;;;;;;;;;36.72;24.36;99262.47;5145982;27;20096;-87
2022/08/07 11:20:30;;;;;;;;;;;;;;;36.12;24.93;99267.31;5118521;27;19938;-85
2022/08/07 11:22:59;;;;;;;;;;;;;;;35.46;25.13;99262.38;5148107;27;19927;-85
2022/08/07 11:25:37;;;;;;;;;;;;;;;35.41;25.42;99262.00;5116869;27;19928;-86
2022/08/07 11:28:16;;;;;;;;;;;;;;;35.90;24.69;99243.34;5129589;27;19927;-86
2022/08/07 11:31:03;;;;;;;;;;;;;;;35.84;24.46;99242.19;5130496;27;19927;-84
2022/08/07 11:33:48;;;;;;;;;;;;;;;35.79;24.37;99246.22;5127596;27;19927;-84
2022/08/07 11:36:40;;;;;;;;;;;;;;;36.85;23.93;99226.22;5109208;27;19928;-85
2022/08/07 11:39:19;;;;;;;;;;;;;;;37.04;23.48;99238.88;5137321;27;19980;-84
2022/08/07 11:41:59;;;;;;;;;;;;;;;35.72;24.07;99251.88;5131613;27;19932;-84
2022/08/07 11:44:52;;;;;;;;;;;;;;;34.24;25.70;99259.69;5110174;27;19963;-84
2022/08/07 11:47:42;;;;;;;;;;;;;;;33.49;26.29;99244.63;5140846;27;19927;-85
2022/08/07 11:50:33;;;;;;;;;;;;;;;33.04;27.10;99247.59;5131673;27;20007;-84
2022/08/07 11:53:02;;;;;;;;;;;;;;;32.62;27.69;99254.47;5119233;27;20048;-84
2022/08/07 11:55:49;;;;;;;;;;;;;;;31.90;27.67;99247.34;5130048;27;19935;-84
2022/08/07 11:58:36;;;;;;;;;;;;;;;31.94;28.27;99251.81;5135106;27;19927;-84
2022/08/07 12:01:03;;;;;;;;;;;;;;;32.08;28.12;99264.28;5137353;27;19991;-84
2022/08/07 12:03:37;;;;;;;;;;;;;;;31.68;27.87;99265.84;5143672;27;19927;-84
2022/08/07 12:06:24;;;;;;;;;;;;;;;31.69;27.95;99259.06;5126277;27;19927;-82
2022/08/07 12:09:08;;;;;;;;;;;;;;;31.39;28.01;99251.53;5116300;27;20305;-85
2022/08/07 12:11:44;;;;;;;;;;;;;;;31.35;27.91;99263.75;5137046;27;19927;-85
2022/08/07 12:14:32;;;;;;;;;;;;;;;31.66;27.39;99274.56;5125585;27;19932;-84
2022/08/07 12:17:05;;;;;;;;;;;;;;;31.49;30.79;99273.16;5123117;27;19934;-84
2022/08/07 12:19:59;;;;;;;;;;;;;;;30.69;35.36;99277.94;5127796;27;19927;-84
2022/08/07 12:22:39;;;;;;;;;;;;;;;30.33;35.94;99282.06;5110175;27;20445;-84
2022/08/07 12:28:34;;;;;;;;;;;;;;;31.56;33.77;99296.75;5116418;27;19987;-83
2022/08/07 12:31:04;;;;;;;;;;;;;;;32.94;32.07;99327.38;5149015;27;19933;-84
2022/08/07 12:33:37;;;;;;;;;;;;;;;33.33;31.49;99326.88;5122475;27;19950;-84
2022/08/07 12:36:24;;;;;;;;;;;;;;;33.67;30.78;99332.25;5123305;27;20007;-84
2022/08/07 12:39:03;;;;;;;;;;;;;;;32.19;33.01;99312.69;5115980;27;20371;-84
2022/08/07 12:41:53;;;;;;;;;;;;;;;31.20;34.92;99316.56;5111756;28;19966;-84
2022/08/07 12:44:20;;;;;;;;;;;;;;;29.98;37.06;99325.53;5112451;28;19996;-84
2022/08/07 12:47:06;;;;;;;;;;;;;;;31.26;35.81;99333.75;5112248;28;19934;-84
2022/08/07 12:49:55;;;;;;;;;;;;;;;32.44;34.23;99309.34;5113496;28;19931;-85
2022/08/07 12:52:33;;;;;;;;;;;;;;;30.60;36.86;99316.34;5124086;27;20038;-84
2022/08/07 12:55:08;;;;;;;;;;;;;;;29.29;39.29;99330.75;5095239;27;19975;-83
2022/08/07 12:57:43;;;;;;;;;;;;;;;29.06;40.00;99336.19;5113286;28;19928;-83
2022/08/07 13:00:30;;;;;;;;;;;;;;;29.34;39.29;99318.56;5125078;27;19927;-84
2022/08/07 13:03:22;;;;;;;;;;;;;;;29.24;38.99;99331.03;5116729;27;19928;-83
2022/08/07 13:06:27;;;;;;;;;;;;;;;28.22;40.11;99341.91;5101283;27;20320;-84
2022/08/07 13:09:06;;;;;;;;;;;;;;;27.56;41.61;99362.56;5121712;27;20014;-84
2022/08/07 13:11:56;;;;;;;;;;;;;;;27.12;42.38;99357.63;5117777;27;20305;-84
2022/08/07 13:14:48;;;;;;;;;;;;;;;27.08;42.74;99378.84;5122264;27;20401;-84
2022/08/07 13:17:20;;;;;;;;;;;;;;;26.80;43.67;99390.59;5132041;27;19931;-84
2022/08/07 13:20:13;;;;;;;;;;;;;;;26.74;43.88;99375.34;5133101;27;19928;-87
2022/08/07 13:22:44;;;;;;;;;;;;;;;26.80;44.37;99364.88;5128139;27;19934;-86
2022/08/07 13:25:28;;;;;;;;;;;;;;;26.80;44.42;99367.63;5117802;27;19959;-84
2022/08/07 13:28:27;;;;;;;;;;;;;;;26.98;44.46;99357.16;5128625;27;19928;-85
2022/08/07 13:31:00;;;;;;;;;;;;;;;27.01;44.06;99356.44;5085380;28;20315;-84
2022/08/07 13:33:45;;;;;;;;;;;;;;;27.36;44.05;99367.09;5072119;28;19928;-82
2022/08/07 13:36:33;;;;;;;;;;;;;;;27.61;43.29;99374.22;5090083;28;20298;-84
2022/08/07 13:39:08;;;;;;;;;;;;;;;27.98;42.48;99378.88;5056729;28;19928;-83
2022/08/07 13:41:54;;;;;;;;;;;;;;;27.88;42.86;99377.44;5081585;28;19934;-85
2022/08/07 13:44:26;;;;;;;;;;;;;;;27.74;43.11;99374.19;5081856;28;19928;-83
2022/08/07 13:47:02;;;;;;;;;;;;;;;27.66;43.05;99371.19;5059216;28;19965;-82
2022/08/07 13:49:37;;;;;;;;;;;;;;;27.30;43.31;99382.34;5083272;28;20384;-84
2022/08/07 13:52:24;;;;;;;;;;;;;;;26.74;44.59;99374.56;5099043;28;19928;-84
2022/08/07 13:55:10;;;;;;;;;;;;;;;26.96;44.12;99371.31;5089290;28;19927;-82
2022/08/07 13:58:59;;;;;;;;;;;;;;;27.08;44.09;99378.03;5094378;28;20342;-82
2022/08/07 14:00:58;;;;;;;;;;;;;;;27.17;44.21;99378.75;5105917;28;19928;-83